Time;durP1;ratioP1;P1;durP2;ratioP2;P2;SDS_P1;SDS_P2;PMS_P1;PMS_P2;Temp;Humidity;BMP_temperature;BMP_pressure;BME280_temperature;BME280_humidity;BME280_pressure;Samples;Min_cycle;Max_cycle;Signal;HPM_P1;HPM_P2
2023/02/04 00:00:20;;;;;;;68.93;39.73;;;5.00;94.20;;;;;;5035570;28;20229;-66
2023/02/04 00:02:47;;;;;;;65.50;37.13;;;5.00;94.40;;;;;;5031160;28;20202;-66
2023/02/04 00:05:16;;;;;;;72.60;38.40;;;5.10;94.60;;;;;;5036257;28;20242;-66
2023/02/04 00:07:43;;;;;;;78.33;39.23;;;5.20;94.80;;;;;;5035084;28;20196;-66
2023/02/04 00:10:10;;;;;;;70.27;38.50;;;5.30;94.90;;;;;;5034868;28;20636;-66
2023/02/04 00:12:37;;;;;;;65.80;37.33;;;5.40;95.00;;;;;;5040316;28;20230;-66
2023/02/04 00:15:05;;;;;;;60.83;35.87;;;5.50;95.10;;;;;;5036105;28;20226;-66
2023/02/04 00:17:32;;;;;;;72.40;35.83;;;5.60;95.20;;;;;;5036895;28;20643;-66
2023/02/04 00:19:59;;;;;;;57.87;33.03;;;5.70;95.20;;;;;;5035616;28;20214;-66
2023/02/04 00:22:27;;;;;;;59.87;34.33;;;5.80;95.20;;;;;;5036503;28;20483;-66
2023/02/04 00:24:55;;;;;;;63.30;34.63;;;5.80;95.30;;;;;;5037543;28;20260;-66
2023/02/04 00:27:22;;;;;;;60.20;31.77;;;5.90;95.40;;;;;;5034954;28;20582;-67
2023/02/04 00:29:49;;;;;;;63.13;32.43;;;6.00;95.50;;;;;;5038877;28;20203;-66
2023/02/04 00:32:16;;;;;;;56.33;30.87;;;6.10;95.60;;;;;;5027566;28;20212;-65
2023/02/04 00:34:43;;;;;;;62.37;31.43;;;6.20;95.70;;;;;;5028608;28;20633;-66
2023/02/04 00:37:10;;;;;;;51.77;30.80;;;6.30;95.60;;;;;;5024365;28;20203;-66
2023/02/04 00:39:37;;;;;;;58.00;31.73;;;6.40;95.60;;;;;;5041672;28;20203;-66
2023/02/04 00:42:05;;;;;;;56.13;30.90;;;6.50;95.70;;;;;;5036072;28;20253;-66
2023/02/04 00:44:35;;;;;;;54.27;30.67;;;6.50;95.60;;;;;;5038208;28;20214;-66
2023/02/04 00:47:03;;;;;;;50.03;29.57;;;6.60;95.60;;;;;;5032446;28;20207;-67
2023/02/04 00:49:30;;;;;;;46.50;27.00;;;6.60;95.50;;;;;;5030616;28;20546;-66
2023/02/04 00:51:57;;;;;;;47.37;28.53;;;6.70;95.40;;;;;;5038692;28;20210;-65
2023/02/04 00:54:25;;;;;;;45.70;26.83;;;6.70;95.30;;;;;;5040151;28;20203;-66
2023/02/04 00:56:52;;;;;;;52.70;28.37;;;6.60;95.20;;;;;;5034208;28;20636;-65
2023/02/04 00:59:19;;;;;;;47.50;27.53;;;6.60;95.20;;;;;;5035538;28;20206;-67
2023/02/04 01:01:46;;;;;;;43.20;26.80;;;6.60;95.10;;;;;;5034482;28;20204;-66
2023/02/04 01:04:13;;;;;;;53.30;28.40;;;6.60;95.10;;;;;;5033523;28;20334;-66
2023/02/04 01:06:40;;;;;;;49.83;27.50;;;6.60;95.10;;;;;;5038031;28;20220;-66
2023/02/04 01:09:09;;;;;;;44.17;28.03;;;6.60;95.10;;;;;;5030185;28;20197;-66
2023/02/04 01:11:36;;;;;;;52.97;27.07;;;6.60;95.00;;;;;;5037750;28;20553;-66
2023/02/04 01:14:03;;;;;;;43.17;25.33;;;6.50;94.90;;;;;;5032475;28;20230;-66
2023/02/04 01:16:31;;;;;;;41.03;25.70;;;6.50;94.80;;;;;;5029244;28;20248;-66
2023/02/04 01:18:59;;;;;;;50.13;27.20;;;6.40;94.60;;;;;;5033104;28;20218;-67
2023/02/04 01:21:26;;;;;;;53.20;29.50;;;6.30;94.50;;;;;;5029216;28;20265;-66
2023/02/04 01:23:53;;;;;;;48.50;27.53;;;6.30;94.60;;;;;;5033546;28;20238;-66
2023/02/04 01:26:21;;;;;;;48.63;28.63;;;6.30;94.70;;;;;;5031899;28;20571;-66
2023/02/04 01:28:49;;;;;;;46.80;27.13;;;6.20;94.70;;;;;;5030420;28;20272;-66
2023/02/04 01:31:16;;;;;;;45.67;27.53;;;6.20;94.70;;;;;;5040644;28;20274;-66
2023/02/04 01:33:43;;;;;;;46.63;26.70;;;6.10;94.60;;;;;;5039278;28;20234;-66
2023/02/04 01:36:11;;;;;;;40.73;25.13;;;6.10;94.50;;;;;;5038777;28;20663;-66
2023/02/04 01:38:39;;;;;;;38.70;24.77;;;6.00;94.40;;;;;;5036252;28;20248;-66
2023/02/04 01:41:06;;;;;;;44.90;26.30;;;6.00;94.30;;;;;;5041256;28;20217;-66
2023/02/04 01:43:33;;;;;;;42.97;26.67;;;5.90;94.20;;;;;;5030122;28;20195;-67
2023/02/04 01:46:01;;;;;;;40.80;24.37;;;5.80;94.20;;;;;;5043299;28;20194;-66
2023/02/04 01:48:29;;;;;;;46.97;26.00;;;5.80;94.30;;;;;;5032533;28;20206;-66
2023/02/04 01:51:03;;;;;;;44.70;26.13;;;5.70;94.20;;;;;;5033617;28;20207;-66
2023/02/04 01:53:31;;;;;;;46.03;26.70;;;5.70;94.40;;;;;;5042096;28;20265;-66
2023/02/04 01:55:59;;;;;;;45.23;26.23;;;5.70;94.70;;;;;;5031985;28;20203;-66
2023/02/04 01:58:30;;;;;;;46.10;26.40;;;5.80;94.90;;;;;;5038732;28;20211;-66
2023/02/04 02:00:57;;;;;;;45.90;25.07;;;5.80;95.00;;;;;;5037574;28;20196;-66
2023/02/04 02:03:24;;;;;;;43.87;25.70;;;5.80;95.10;;;;;;5043177;28;20212;-66
2023/02/04 02:05:54;;;;;;;48.33;24.90;;;5.90;95.10;;;;;;5037976;28;20605;-67
2023/02/04 02:08:24;;;;;;;45.03;24.90;;;5.90;95.10;;;;;;5041218;28;20213;-66
2023/02/04 02:10:51;;;;;;;45.83;26.20;;;5.90;95.10;;;;;;5041257;28;20198;-66
2023/02/04 02:13:19;;;;;;;39.37;23.03;;;5.90;95.10;;;;;;5038159;28;20238;-66
2023/02/04 02:15:46;;;;;;;37.03;21.87;;;5.90;95.10;;;;;;5039185;28;20226;-66
2023/02/04 02:18:15;;;;;;;41.33;23.47;;;5.90;95.20;;;;;;5025709;28;20208;-66
2023/02/04 02:20:44;;;;;;;35.83;22.13;;;5.90;95.20;;;;;;5035707;28;20202;-66
2023/02/04 02:23:21;;;;;;;48.87;25.93;;;5.90;95.20;;;;;;5032429;28;20279;-66
2023/02/04 02:25:49;;;;;;;41.67;23.80;;;5.90;95.20;;;;;;5038450;28;20272;-66
2023/02/04 02:28:19;;;;;;;43.77;23.23;;;5.90;95.20;;;;;;5040955;28;20602;-66
2023/02/04 02:30:48;;;;;;;41.07;23.83;;;5.90;95.30;;;;;;5041006;28;20199;-66
2023/02/04 02:33:19;;;;;;;39.03;23.03;;;6.00;95.40;;;;;;5040293;28;20207;-66
2023/02/04 02:35:49;;;;;;;42.77;23.63;;;6.00;95.40;;;;;;5038156;28;20288;-66
2023/02/04 02:38:18;;;;;;;41.17;22.03;;;6.00;95.50;;;;;;5036517;28;20654;-66
2023/02/04 02:40:46;;;;;;;41.53;23.27;;;6.00;95.50;;;;;;5041364;28;20214;-66
2023/02/04 02:43:16;;;;;;;38.47;20.90;;;6.10;95.50;;;;;;5023614;28;20199;-66
2023/02/04 02:45:44;;;;;;;41.40;22.80;;;6.10;95.50;;;;;;5042327;28;20268;-66
2023/02/04 02:48:11;;;;;;;41.83;23.70;;;6.10;95.30;;;;;;5040956;28;20293;-66
2023/02/04 02:50:40;;;;;;;40.33;21.50;;;6.00;95.20;;;;;;5029283;28;20212;-66
2023/02/04 02:53:18;;;;;;;38.77;20.87;;;6.00;95.20;;;;;;5040687;28;20229;-66
2023/02/04 02:55:46;;;;;;;46.87;22.93;;;6.00;95.10;;;;;;5037074;28;20258;-66
2023/02/04 02:58:28;;;;;;;37.30;22.60;;;6.00;95.10;;;;;;5043242;28;20202;-66
2023/02/04 03:00:56;;;;;;;37.83;23.60;;;6.00;95.10;;;;;;5021087;28;20303;-66
2023/02/04 03:03:30;;;;;;;40.33;25.07;;;5.90;95.00;;;;;;5040859;28;20198;-66
2023/02/04 03:06:03;;;;;;;41.10;22.60;;;5.90;95.00;;;;;;5037558;28;20249;-66
2023/02/04 03:08:30;;;;;;;39.03;23.33;;;5.90;95.00;;;;;;5035318;28;20225;-66
2023/02/04 03:10:57;;;;;;;39.47;24.07;;;5.80;95.00;;;;;;5040800;28;20207;-65
2023/02/04 03:13:25;;;;;;;38.47;22.77;;;5.80;95.00;;;;;;5032110;28;20619;-67
2023/02/04 03:15:52;;;;;;;36.03;22.43;;;5.80;94.90;;;;;;5039537;28;20532;-67
2023/02/04 03:18:20;;;;;;;36.87;22.63;;;5.70;94.70;;;;;;5033248;28;20198;-66
2023/02/04 03:20:50;;;;;;;39.00;22.73;;;5.60;94.90;;;;;;5028130;28;20194;-66
2023/02/04 03:23:19;;;;;;;40.67;22.67;;;5.60;94.60;;;;;;5037474;28;20632;-66
2023/02/04 03:25:46;;;;;;;35.60;22.30;;;5.50;94.60;;;;;;5028839;28;20244;-66
2023/02/04 03:28:13;;;;;;;40.37;22.33;;;5.50;94.70;;;;;;5041843;28;20609;-66
2023/02/04 03:30:40;;;;;;;37.93;22.67;;;5.50;94.80;;;;;;5039014;28;20214;-66
2023/02/04 03:33:07;;;;;;;36.83;22.17;;;5.50;94.90;;;;;;5036862;28;20207;-66
2023/02/04 03:35:35;;;;;;;35.47;22.63;;;5.50;95.00;;;;;;5039652;28;20228;-67
2023/02/04 03:38:01;;;;;;;36.47;21.70;;;5.60;95.30;;;;;;5031931;28;20253;-66
2023/02/04 03:40:28;;;;;;;37.40;21.93;;;5.70;95.60;;;;;;5036998;28;20205;-66
2023/02/04 03:42:56;;;;;;;40.33;21.57;;;5.80;95.70;;;;;;5034003;28;20211;-65
2023/02/04 03:45:23;;;;;;;35.07;22.13;;;5.90;95.80;;;;;;5031114;28;20590;-66
2023/02/04 03:47:51;;;;;;;37.50;21.23;;;6.00;95.80;;;;;;5043718;28;20209;-66
2023/02/04 03:50:18;;;;;;;33.57;20.73;;;6.10;95.70;;;;;;5040937;28;20283;-65
2023/02/04 03:52:47;;;;;;;39.57;21.17;;;6.10;95.60;;;;;;5036323;28;20265;-66
2023/02/04 03:55:14;;;;;;;30.73;19.30;;;6.10;95.50;;;;;;5034932;28;20199;-66
2023/02/04 03:57:41;;;;;;;31.00;20.00;;;6.10;95.40;;;;;;5040884;28;20230;-66
2023/02/04 04:00:10;;;;;;;38.60;19.93;;;6.20;95.30;;;;;;5033085;28;20218;-66
2023/02/04 04:02:40;;;;;;;34.70;20.50;;;6.10;95.30;;;;;;5036236;28;20623;-66
2023/02/04 04:05:09;;;;;;;33.30;19.87;;;6.10;95.20;;;;;;5036343;28;20234;-66
2023/02/04 04:07:36;;;;;;;31.13;19.90;;;6.10;95.10;;;;;;5028756;28;20212;-66
2023/02/04 04:10:03;;;;;;;30.30;18.80;;;6.10;95.10;;;;;;5033808;28;20202;-66
2023/02/04 04:12:30;;;;;;;25.83;18.17;;;6.00;95.10;;;;;;5038808;28;20242;-66
2023/02/04 04:14:58;;;;;;;33.63;19.30;;;6.00;95.10;;;;;;5037188;28;20222;-66
2023/02/04 04:17:25;;;;;;;28.73;18.43;;;6.00;95.10;;;;;;5041567;28;20280;-66
2023/02/04 04:19:52;;;;;;;29.30;18.90;;;6.00;95.10;;;;;;5039972;28;20590;-66
2023/02/04 04:22:19;;;;;;;34.57;21.00;;;6.00;95.10;;;;;;5036020;28;20306;-66
2023/02/04 04:24:46;;;;;;;33.77;19.70;;;6.00;95.10;;;;;;5034124;28;20281;-66
2023/02/04 04:27:13;;;;;;;25.77;17.37;;;6.00;95.20;;;;;;5037991;28;20206;-66
2023/02/04 04:29:40;;;;;;;31.80;17.10;;;6.10;95.30;;;;;;5027227;28;20225;-66
2023/02/04 04:32:08;;;;;;;25.20;16.73;;;6.10;95.30;;;;;;5019474;28;20210;-66
2023/02/04 04:34:35;;;;;;;31.47;16.97;;;6.10;95.30;;;;;;5039594;28;20548;-67
2023/02/04 04:37:02;;;;;;;26.07;16.40;;;6.10;95.20;;;;;;5034708;28;20213;-66
2023/02/04 04:39:29;;;;;;;26.23;16.23;;;6.10;95.20;;;;;;5031832;28;20646;-66
2023/02/04 04:41:56;;;;;;;28.90;18.07;;;6.10;95.20;;;;;;5035681;28;20208;-66
2023/02/04 04:44:23;;;;;;;29.67;16.53;;;6.00;95.10;;;;;;5035490;28;20207;-66
2023/02/04 04:46:50;;;;;;;28.60;16.07;;;6.00;95.10;;;;;;5034805;28;20209;-66
2023/02/04 04:49:17;;;;;;;27.07;16.50;;;6.00;95.00;;;;;;5040717;28;20222;-66
2023/02/04 04:51:44;;;;;;;29.73;15.80;;;6.00;95.10;;;;;;5040093;28;20206;-66
2023/02/04 04:54:11;;;;;;;24.93;16.77;;;6.00;95.50;;;;;;5037296;28;20575;-66
2023/02/04 04:56:38;;;;;;;26.27;16.27;;;6.00;95.20;;;;;;5033227;28;20199;-66
2023/02/04 04:59:05;;;;;;;27.90;17.13;;;6.00;95.20;;;;;;5040218;28;20200;-66
2023/02/04 05:01:33;;;;;;;26.07;17.60;;;6.10;95.30;;;;;;5034764;28;20527;-66
2023/02/04 05:04:00;;;;;;;28.77;14.47;;;6.10;95.30;;;;;;5030777;28;20231;-66
2023/02/04 05:06:27;;;;;;;26.03;15.23;;;6.00;95.20;;;;;;5036806;28;20659;-66
2023/02/04 05:08:54;;;;;;;21.77;14.70;;;6.00;95.10;;;;;;5032673;28;20257;-66
2023/02/04 05:11:21;;;;;;;29.43;15.90;;;6.00;95.10;;;;;;5037386;28;20203;-66
2023/02/04 05:13:48;;;;;;;24.90;15.20;;;6.00;95.10;;;;;;5032846;28;20215;-66
2023/02/04 05:16:16;;;;;;;30.30;17.07;;;6.00;95.00;;;;;;5038207;28;20223;-66
2023/02/04 05:18:43;;;;;;;28.60;17.67;;;5.90;95.00;;;;;;5032658;28;20199;-65
2023/02/04 05:21:10;;;;;;;30.63;16.47;;;5.90;95.00;;;;;;5035119;28;20196;-66
2023/02/04 05:23:37;;;;;;;27.47;16.47;;;5.80;95.10;;;;;;5034549;28;20247;-67
2023/02/04 05:26:04;;;;;;;28.80;16.23;;;5.80;95.10;;;;;;5032104;28;20230;-66
2023/02/04 05:28:31;;;;;;;28.50;16.23;;;5.80;95.10;;;;;;5035757;28;20198;-67
2023/02/04 05:30:58;;;;;;;28.37;15.90;;;5.80;95.10;;;;;;5036221;28;20203;-66
2023/02/04 05:33:25;;;;;;;27.50;16.03;;;5.80;95.10;;;;;;5035052;28;20298;-66
2023/02/04 05:35:53;;;;;;;25.87;16.27;;;5.80;95.10;;;;;;5033429;28;20206;-66
2023/02/04 05:38:19;;;;;;;20.20;14.97;;;5.80;95.00;;;;;;5038348;28;20215;-66
2023/02/04 05:40:46;;;;;;;22.57;15.33;;;5.70;94.90;;;;;;5033716;28;20206;-66
2023/02/04 05:43:13;;;;;;;30.87;17.50;;;5.70;94.80;;;;;;5029931;28;20663;-66
2023/02/04 05:45:40;;;;;;;25.27;15.57;;;5.60;94.70;;;;;;5036086;28;20206;-66
2023/02/04 05:48:07;;;;;;;25.53;15.63;;;5.50;94.60;;;;;;5034252;28;20291;-66
2023/02/04 05:50:34;;;;;;;21.37;15.80;;;5.50;94.60;;;;;;5034062;28;20533;-66
2023/02/04 05:53:08;;;;;;;25.97;16.53;;;5.40;94.40;;;;;;5036146;28;20211;-66
2023/02/04 05:55:35;;;;;;;27.00;16.57;;;5.30;94.40;;;;;;5033663;28;20474;-66
2023/02/04 05:58:02;;;;;;;27.77;16.63;;;5.20;94.50;;;;;;5033591;28;20207;-66
2023/02/04 06:00:29;;;;;;;31.27;18.00;;;5.20;94.50;;;;;;5030939;28;20265;-66
2023/02/04 06:02:56;;;;;;;28.77;15.87;;;5.10;94.60;;;;;;5035239;28;20298;-66
2023/02/04 06:05:23;;;;;;;40.10;18.00;;;5.10;94.70;;;;;;5039992;28;20245;-66
2023/02/04 06:07:51;;;;;;;30.17;17.90;;;5.10;94.80;;;;;;5033698;28;20232;-66
2023/02/04 06:10:20;;;;;;;29.07;17.03;;;5.10;94.90;;;;;;5031978;28;20202;-67
2023/02/04 06:12:47;;;;;;;26.23;17.40;;;5.10;95.00;;;;;;5031220;28;20361;-66
2023/02/04 06:15:15;;;;;;;24.90;15.13;;;5.10;95.10;;;;;;5037152;28;20218;-66
2023/02/04 06:17:41;;;;;;;22.90;14.67;;;5.10;95.10;;;;;;5033449;28;20721;-66
2023/02/04 06:20:12;;;;;;;22.67;14.03;;;5.10;95.10;;;;;;5032365;28;20241;-66
2023/02/04 06:22:39;;;;;;;27.27;15.60;;;5.00;94.90;;;;;;5033891;28;20203;-66
2023/02/04 06:25:06;;;;;;;24.03;14.37;;;4.90;94.60;;;;;;5033382;28;20207;-66
2023/02/04 06:27:33;;;;;;;28.20;16.63;;;4.80;94.30;;;;;;5027360;28;20222;-66
2023/02/04 06:30:00;;;;;;;25.33;15.83;;;4.70;94.50;;;;;;5037955;28;20191;-66
2023/02/04 06:32:27;;;;;;;29.83;17.17;;;4.70;94.70;;;;;;5041741;28;20598;-68
2023/02/04 06:34:54;;;;;;;26.90;16.27;;;4.70;94.90;;;;;;5036770;28;20570;-66
2023/02/04 06:37:22;;;;;;;26.57;15.80;;;4.70;95.00;;;;;;5040599;28;20290;-66
2023/02/04 06:39:50;;;;;;;26.70;17.03;;;4.70;95.00;;;;;;5037405;28;20252;-66
2023/02/04 06:42:17;;;;;;;27.83;15.90;;;4.70;94.90;;;;;;5035907;28;20229;-66
2023/02/04 06:44:44;;;;;;;22.20;16.27;;;4.60;94.80;;;;;;5038373;28;20286;-66
2023/02/04 06:47:11;;;;;;;24.87;16.10;;;4.60;94.70;;;;;;5040841;28;20667;-66
2023/02/04 06:49:38;;;;;;;27.20;15.73;;;4.60;94.70;;;;;;5029169;28;20215;-66
2023/02/04 06:52:05;;;;;;;28.07;17.30;;;4.50;94.30;;;;;;5040812;28;20267;-66
2023/02/04 06:54:32;;;;;;;30.97;18.73;;;4.50;93.90;;;;;;5040238;28;20215;-66
2023/02/04 06:57:05;;;;;;;31.27;17.37;;;4.40;94.20;;;;;;5040655;28;20228;-66
2023/02/04 06:59:34;;;;;;;31.03;17.90;;;4.50;94.60;;;;;;5039614;28;20639;-66
2023/02/04 07:02:02;;;;;;;27.33;18.00;;;4.60;94.80;;;;;;5036136;28;20209;-66
2023/02/04 07:04:29;;;;;;;32.83;19.07;;;4.70;94.50;;;;;;5033759;28;20251;-66
2023/02/04 07:06:56;;;;;;;38.60;22.70;;;4.80;94.30;;;;;;5036667;28;20570;-66
2023/02/04 07:09:24;;;;;;;36.33;21.47;;;4.90;94.00;;;;;;5042833;28;20225;-66
2023/02/04 07:11:51;;;;;;;41.13;23.07;;;5.00;93.80;;;;;;5033475;28;20221;-66
2023/02/04 07:14:18;;;;;;;37.10;22.27;;;5.00;93.50;;;;;;5033367;28;20279;-66
2023/02/04 07:16:45;;;;;;;36.73;23.33;;;5.10;93.40;;;;;;5039085;28;20196;-66
2023/02/04 07:19:12;;;;;;;38.33;23.77;;;5.10;93.50;;;;;;5027443;28;20220;-65
2023/02/04 07:21:39;;;;;;;45.30;26.23;;;5.30;93.20;;;;;;5011274;28;20562;-66
2023/02/04 07:24:06;;;;;;;53.00;29.03;;;5.40;92.80;;;;;;5038920;28;20202;-66
2023/02/04 07:26:33;;;;;;;53.03;31.93;;;5.50;92.50;;;;;;5031653;28;20242;-66
2023/02/04 07:29:00;;;;;;;58.83;32.20;;;5.70;92.00;;;;;;5039535;28;20210;-66
2023/02/04 07:31:27;;;;;;;58.13;30.73;;;5.80;91.50;;;;;;5040521;28;20203;-66
2023/02/04 07:33:54;;;;;;;55.43;32.87;;;5.90;91.40;;;;;;5037056;28;20309;-67
2023/02/04 07:36:21;;;;;;;54.30;32.97;;;6.10;91.30;;;;;;5034650;28;20276;-66
2023/02/04 07:38:48;;;;;;;55.87;32.37;;;6.30;91.20;;;;;;5038814;28;20234;-66
2023/02/04 07:41:15;;;;;;;60.30;33.13;;;6.50;90.80;;;;;;5029755;28;20642;-66
2023/02/04 07:43:43;;;;;;;61.13;34.90;;;6.60;90.50;;;;;;5033352;28;20233;-66
2023/02/04 07:46:10;;;;;;;57.07;33.03;;;6.60;90.60;;;;;;5025318;28;20523;-66
2023/02/04 07:48:37;;;;;;;59.67;33.73;;;6.50;90.80;;;;;;5041579;28;20194;-66
2023/02/04 07:51:04;;;;;;;57.23;34.67;;;6.40;91.30;;;;;;5041944;28;20207;-66
2023/02/04 07:53:31;;;;;;;62.37;33.90;;;6.50;91.40;;;;;;5036462;28;20222;-65
2023/02/04 07:55:58;;;;;;;59.27;32.10;;;6.60;91.50;;;;;;5038873;28;20651;-66
2023/02/04 07:58:25;;;;;;;56.00;34.33;;;6.70;91.40;;;;;;5030655;28;20517;-66
2023/02/04 08:00:52;;;;;;;60.03;33.57;;;6.80;91.20;;;;;;5032457;28;20604;-67
2023/02/04 08:03:19;;;;;;;56.20;33.03;;;6.90;91.20;;;;;;5032118;28;20229;-66
2023/02/04 08:05:46;;;;;;;66.83;36.93;;;6.90;91.20;;;;;;5028333;28;20242;-67
2023/02/04 08:08:14;;;;;;;64.90;36.30;;;6.90;91.40;;;;;;5032221;28;20196;-66
2023/02/04 08:10:41;;;;;;;66.97;37.80;;;7.00;91.50;;;;;;5038242;28;20261;-66
2023/02/04 08:13:08;;;;;;;67.70;37.30;;;7.00;91.70;;;;;;5031570;28;20626;-66
2023/02/04 08:15:35;;;;;;;63.70;37.10;;;7.00;91.80;;;;;;5037877;28;20192;-66
2023/02/04 08:18:03;;;;;;;83.77;42.30;;;7.10;91.90;;;;;;5031519;28;20241;-66
2023/02/04 08:20:30;;;;;;;75.53;42.27;;;7.10;92.00;;;;;;5039705;28;20207;-65
2023/02/04 08:22:57;;;;;;;79.23;42.70;;;7.20;92.10;;;;;;5037705;28;20636;-66
2023/02/04 08:25:25;;;;;;;88.63;47.23;;;7.20;92.20;;;;;;5036281;28;20265;-66
2023/02/04 08:27:52;;;;;;;92.27;48.37;;;7.20;92.30;;;;;;5038612;28;20214;-69
2023/02/04 08:30:19;;;;;;;102.10;52.50;;;7.30;92.40;;;;;;5031873;28;20195;-66
2023/02/04 08:32:46;;;;;;;94.90;51.23;;;7.40;92.50;;;;;;5035559;28;20661;-66
2023/02/04 08:35:13;;;;;;;114.50;58.93;;;7.50;92.60;;;;;;5038191;28;20219;-66
2023/02/04 08:37:40;;;;;;;113.87;61.03;;;7.50;92.50;;;;;;5014184;28;20557;-66
2023/02/04 08:40:08;;;;;;;118.87;63.67;;;7.60;92.70;;;;;;5039512;28;20218;-66
2023/02/04 08:42:35;;;;;;;130.40;66.37;;;7.70;92.70;;;;;;5039370;28;20206;-66
2023/02/04 08:45:02;;;;;;;126.70;68.27;;;7.80;92.70;;;;;;5037828;28;20241;-66
2023/02/04 08:47:29;;;;;;;140.23;72.77;;;7.90;92.70;;;;;;5038651;28;20584;-67
2023/02/04 08:49:56;;;;;;;147.03;76.50;;;7.90;92.70;;;;;;5034435;28;20207;-66
2023/02/04 08:52:23;;;;;;;135.60;69.97;;;8.00;92.80;;;;;;5032978;28;20236;-66
2023/02/04 08:54:50;;;;;;;137.87;74.20;;;8.10;92.90;;;;;;5036850;28;20681;-66
2023/02/04 08:57:17;;;;;;;141.13;74.80;;;8.20;93.00;;;;;;5037099;28;20272;-66
2023/02/04 08:59:44;;;;;;;139.67;76.07;;;8.20;93.00;;;;;;5031487;28;20202;-66
2023/02/04 09:02:11;;;;;;;145.43;77.70;;;8.30;92.90;;;;;;5035176;28;20196;-66
2023/02/04 09:04:38;;;;;;;148.57;76.10;;;8.40;92.90;;;;;;5028075;28;20354;-66
2023/02/04 09:07:05;;;;;;;148.63;73.73;;;8.40;93.20;;;;;;5033916;28;20640;-66
2023/02/04 09:09:32;;;;;;;141.13;71.93;;;8.50;93.30;;;;;;5037159;28;20631;-67
2023/02/04 09:12:00;;;;;;;122.73;65.87;;;8.60;93.40;;;;;;5037126;28;20292;-66
2023/02/04 09:14:27;;;;;;;122.67;64.40;;;8.60;93.20;;;;;;5036640;28;20215;-66
2023/02/04 09:16:54;;;;;;;142.47;78.00;;;8.70;93.00;;;;;;5037875;28;20209;-66
2023/02/04 09:19:24;;;;;;;155.63;82.00;;;8.70;92.80;;;;;;5040853;28;20883;-66
2023/02/04 09:21:52;;;;;;;156.70;78.30;;;8.70;92.80;;;;;;5034992;28;20197;-66
2023/02/04 09:24:22;;;;;;;152.73;77.33;;;8.70;92.90;;;;;;5033664;28;20253;-66
2023/02/04 09:26:49;;;;;;;136.50;73.40;;;8.80;92.80;;;;;;5034574;28;20585;-66
2023/02/04 09:29:16;;;;;;;137.80;71.07;;;8.80;92.80;;;;;;5032361;28;20203;-66
2023/02/04 09:31:43;;;;;;;123.20;68.93;;;8.90;93.00;;;;;;5029779;28;20221;-66
2023/02/04 09:34:10;;;;;;;118.77;66.87;;;9.00;92.90;;;;;;5029599;28;20622;-66
2023/02/04 09:36:38;;;;;;;127.23;65.97;;;9.10;92.80;;;;;;5037729;28;20199;-67
2023/02/04 09:39:06;;;;;;;120.90;65.10;;;9.20;92.70;;;;;;5038552;28;20637;-67
2023/02/04 09:41:33;;;;;;;121.30;63.43;;;9.30;92.60;;;;;;5033465;28;20207;-66
2023/02/04 09:44:02;;;;;;;108.97;60.00;;;9.40;92.50;;;;;;5038816;28;20204;-66
2023/02/04 09:46:31;;;;;;;104.70;56.20;;;9.50;92.40;;;;;;5038888;28;20203;-66
2023/02/04 09:48:59;;;;;;;96.93;53.03;;;9.60;92.10;;;;;;5035913;28;20535;-66
2023/02/04 09:51:28;;;;;;;94.73;51.10;;;9.70;92.00;;;;;;5041858;28;20226;-66
2023/02/04 09:54:05;;;;;;;95.03;51.57;;;9.80;91.60;;;;;;5030721;28;20551;-66
2023/02/04 09:56:33;;;;;;;86.37;46.23;;;9.90;91.40;;;;;;5036562;28;20194;-66
2023/02/04 09:59:02;;;;;;;88.53;49.33;;;10.00;91.40;;;;;;5039813;28;20228;-66
2023/02/04 10:01:29;;;;;;;76.43;46.00;;;10.10;91.30;;;;;;5029922;28;20238;-66
2023/02/04 10:04:00;;;;;;;77.03;46.17;;;10.20;91.10;;;;;;5034800;28;20249;-66
2023/02/04 10:06:27;;;;;;;98.77;54.87;;;10.30;91.10;;;;;;5040431;28;20296;-66
2023/02/04 10:08:55;;;;;;;74.83;43.53;;;10.40;91.00;;;;;;5039099;28;20216;-66
2023/02/04 10:11:25;;;;;;;78.50;43.17;;;10.50;90.90;;;;;;5037974;28;20608;-66
2023/02/04 10:13:54;;;;;;;88.73;48.73;;;10.70;90.70;;;;;;5042304;28;20230;-66
2023/02/04 10:16:33;;;;;;;79.23;45.40;;;10.70;90.30;;;;;;5038645;28;20218;-66
2023/02/04 10:19:03;;;;;;;69.27;41.87;;;10.90;90.30;;;;;;5036018;28;20305;-66
2023/02/04 10:21:39;;;;;;;67.00;39.80;;;11.00;90.20;;;;;;5038872;28;20201;-66
2023/02/04 10:24:14;;;;;;;71.10;40.53;;;11.10;90.10;;;;;;5030672;28;20549;-66
2023/02/04 10:26:41;;;;;;;70.60;42.10;;;11.30;90.10;;;;;;5033711;28;20208;-67
2023/02/04 10:29:15;;;;;;;60.93;38.47;;;11.40;90.00;;;;;;5037688;28;20214;-66
2023/02/04 10:31:44;;;;;;;66.90;39.20;;;11.60;89.70;;;;;;5039075;28;20204;-67
2023/02/04 10:34:35;;;;;;;61.90;39.80;;;11.70;89.20;;;;;;5032988;28;20395;-66
2023/02/04 10:37:15;;;;;;;59.10;36.43;;;11.90;88.50;;;;;;5042620;28;20254;-67
2023/02/04 10:39:42;;;;;;;56.20;33.87;;;12.00;87.90;;;;;;5031880;28;20206;-66
2023/02/04 10:42:29;;;;;;;50.83;32.63;;;12.10;87.30;;;;;;5036061;28;20644;-67
2023/02/04 10:44:57;;;;;;;55.60;31.83;;;12.30;86.60;;;;;;5043028;28;20585;-66
2023/02/04 10:47:29;;;;;;;40.53;27.27;;;12.40;85.60;;;;;;5030506;28;20203;-66
2023/02/04 10:49:59;;;;;;;48.27;29.00;;;12.50;85.20;;;;;;5033635;28;20677;-67
2023/02/04 10:52:36;;;;;;;52.33;29.87;;;12.60;84.60;;;;;;5036994;28;20560;-66
2023/02/04 10:55:06;;;;;;;40.80;25.77;;;12.80;84.40;;;;;;5033275;28;20207;-66
2023/02/04 10:57:38;;;;;;;46.17;27.17;;;12.90;84.00;;;;;;5040435;28;20632;-67
2023/02/04 11:00:21;;;;;;;46.53;29.50;;;13.10;83.30;;;;;;5036551;28;20554;-66
2023/02/04 11:02:48;;;;;;;48.23;28.57;;;13.20;82.60;;;;;;5034141;28;20644;-67
2023/02/04 11:05:21;;;;;;;44.83;28.57;;;13.30;82.40;;;;;;5032383;28;20231;-66
2023/02/04 11:07:49;;;;;;;42.67;25.80;;;13.40;81.90;;;;;;5042184;28;20252;-67
2023/02/04 11:10:22;;;;;;;44.73;25.50;;;13.60;81.80;;;;;;5037573;28;20214;-66
2023/02/04 11:12:52;;;;;;;41.23;25.40;;;13.70;81.30;;;;;;5033674;28;20211;-66
2023/02/04 11:15:39;;;;;;;45.40;27.47;;;13.80;80.80;;;;;;5036147;28;20246;-67
2023/02/04 11:18:19;;;;;;;42.30;28.10;;;13.90;80.30;;;;;;5033876;28;20287;-67
2023/02/04 11:20:50;;;;;;;37.97;26.33;;;14.00;80.00;;;;;;5034444;28;20202;-66
2023/02/04 11:23:29;;;;;;;43.03;26.27;;;14.10;79.90;;;;;;5038283;28;20206;-67
2023/02/04 11:26:10;;;;;;;33.83;24.47;;;14.20;79.50;;;;;;5043722;28;20624;-66
2023/02/04 11:28:40;;;;;;;38.13;24.07;;;14.30;79.10;;;;;;5033888;28;20198;-67
2023/02/04 11:31:23;;;;;;;37.10;23.20;;;14.40;78.90;;;;;;5039119;28;20202;-67
2023/02/04 11:34:08;;;;;;;33.20;21.13;;;14.40;78.20;;;;;;5031043;28;20281;-67
2023/02/04 11:37:00;;;;;;;34.77;21.90;;;14.50;77.60;;;;;;5036253;28;20224;-69
2023/02/04 11:39:43;;;;;;;38.60;23.43;;;14.60;77.40;;;;;;5035952;28;20200;-67
2023/02/04 11:42:22;;;;;;;34.27;22.93;;;14.80;77.30;;;;;;5032174;28;20254;-67
2023/02/04 11:44:57;;;;;;;32.27;21.83;;;14.90;77.00;;;;;;5035494;28;20199;-67
2023/02/04 11:47:25;;;;;;;32.90;21.83;;;15.00;76.80;;;;;;5039782;28;20212;-67
2023/02/04 11:50:00;;;;;;;34.93;21.47;;;15.10;76.60;;;;;;5040262;28;20699;-67
2023/02/04 11:52:27;;;;;;;32.23;21.50;;;15.10;76.30;;;;;;5040683;28;20264;-68
2023/02/04 11:54:59;;;;;;;33.87;21.47;;;15.20;75.40;;;;;;5034987;28;20238;-67
2023/02/04 11:57:27;;;;;;;29.77;19.70;;;15.20;75.00;;;;;;5037752;28;20192;-67
2023/02/04 11:59:54;;;;;;;32.77;21.63;;;15.30;74.60;;;;;;5037619;28;20192;-67
2023/02/04 12:02:26;;;;;;;32.33;20.53;;;15.40;74.10;;;;;;5038642;28;20730;-67
2023/02/04 12:04:56;;;;;;;30.23;20.37;;;15.40;74.30;;;;;;5030605;28;20248;-68
2023/02/04 12:07:28;;;;;;;29.50;19.77;;;15.40;73.80;;;;;;5035225;28;20617;-67
2023/02/04 12:09:56;;;;;;;25.70;17.60;;;15.50;73.00;;;;;;5038800;28;20200;-67
2023/02/04 12:12:28;;;;;;;22.40;15.53;;;15.60;72.80;;;;;;5030149;28;20221;-67
2023/02/04 12:15:02;;;;;;;25.70;17.27;;;15.60;72.50;;;;;;5038375;28;20242;-67
2023/02/04 12:17:29;;;;;;;23.73;16.20;;;15.70;71.90;;;;;;5037567;28;20237;-67
2023/02/04 12:19:56;;;;;;;24.10;16.53;;;15.90;71.90;;;;;;5039414;28;20199;-66
2023/02/04 12:22:23;;;;;;;30.80;15.87;;;15.90;69.20;;;;;;5036677;28;20536;-67
2023/02/04 12:24:51;;;;;;;24.33;14.73;;;16.00;70.00;;;;;;5043303;28;20207;-67
2023/02/04 12:27:18;;;;;;;21.90;15.10;;;16.00;66.10;;;;;;5037738;28;20204;-67
2023/02/04 12:29:45;;;;;;;20.07;13.43;;;16.10;65.70;;;;;;5038530;28;20212;-67
2023/02/04 12:32:12;;;;;;;21.90;14.17;;;16.10;61.90;;;;;;5037329;28;20207;-67
2023/02/04 12:34:39;;;;;;;26.60;14.63;;;16.00;61.10;;;;;;5037370;28;20657;-67
2023/02/04 12:37:06;;;;;;;23.03;15.10;;;16.00;63.60;;;;;;5032961;28;20261;-67
2023/02/04 12:39:33;;;;;;;23.17;13.97;;;16.10;62.50;;;;;;5033890;28;20540;-67